sensor_id;sensor_type;location;lat;lon;timestamp;temperature;humidity
6879;DHT22;3478;51.462;7.338;2023-06-26T00:03:42;24.00;90.90
6879;DHT22;3478;51.462;7.338;2023-06-26T00:08:45;23.90;91.30
6879;DHT22;3478;51.462;7.338;2023-06-26T00:13:47;23.90;91.50
6879;DHT22;3478;51.462;7.338;2023-06-26T00:18:49;23.90;91.10
6879;DHT22;3478;51.462;7.338;2023-06-26T00:23:53;23.90;90.90
6879;DHT22;3478;51.462;7.338;2023-06-26T00:28:55;23.90;91.50
6879;DHT22;3478;51.462;7.338;2023-06-26T00:33:57;23.80;91.30
6879;DHT22;3478;51.462;7.338;2023-06-26T00:39:00;23.70;91.00
6879;DHT22;3478;51.462;7.338;2023-06-26T00:44:04;23.70;91.00
6879;DHT22;3478;51.462;7.338;2023-06-26T00:49:06;23.70;90.90
6879;DHT22;3478;51.462;7.338;2023-06-26T00:54:09;23.70;91.40
6879;DHT22;3478;51.462;7.338;2023-06-26T00:59:11;23.60;91.00
6879;DHT22;3478;51.462;7.338;2023-06-26T01:04:13;23.60;91.30
6879;DHT22;3478;51.462;7.338;2023-06-26T01:09:20;23.40;91.70
6879;DHT22;3478;51.462;7.338;2023-06-26T01:14:22;23.30;92.10
6879;DHT22;3478;51.462;7.338;2023-06-26T01:19:27;23.20;92.30
6879;DHT22;3478;51.462;7.338;2023-06-26T01:24:33;23.10;92.60
6879;DHT22;3478;51.462;7.338;2023-06-26T01:29:39;23.00;92.70
6879;DHT22;3478;51.462;7.338;2023-06-26T01:34:42;23.00;92.80
6879;DHT22;3478;51.462;7.338;2023-06-26T01:39:45;23.00;92.60
6879;DHT22;3478;51.462;7.338;2023-06-26T01:44:49;22.90;93.00
6879;DHT22;3478;51.462;7.338;2023-06-26T01:49:56;22.90;93.00
6879;DHT22;3478;51.462;7.338;2023-06-26T01:55:04;22.80;92.90
6879;DHT22;3478;51.462;7.338;2023-06-26T02:00:09;22.80;93.30
6879;DHT22;3478;51.462;7.338;2023-06-26T02:05:13;22.80;93.10
6879;DHT22;3478;51.462;7.338;2023-06-26T02:10:15;22.80;92.30
6879;DHT22;3478;51.462;7.338;2023-06-26T02:15:18;22.80;92.90
6879;DHT22;3478;51.462;7.338;2023-06-26T02:20:20;22.80;93.00
6879;DHT22;3478;51.462;7.338;2023-06-26T02:25:23;22.80;92.00
6879;DHT22;3478;51.462;7.338;2023-06-26T02:30:26;22.90;91.80
6879;DHT22;3478;51.462;7.338;2023-06-26T02:35:28;22.90;91.60
6879;DHT22;3478;51.462;7.338;2023-06-26T02:40:30;22.80;92.50
6879;DHT22;3478;51.462;7.338;2023-06-26T02:45:33;22.70;92.00
6879;DHT22;3478;51.462;7.338;2023-06-26T02:50:35;22.70;92.40
6879;DHT22;3478;51.462;7.338;2023-06-26T02:55:36;22.60;92.80
6879;DHT22;3478;51.462;7.338;2023-06-26T03:00:40;22.50;93.70
6879;DHT22;3478;51.462;7.338;2023-06-26T03:05:42;22.40;93.70
6879;DHT22;3478;51.462;7.338;2023-06-26T03:10:43;22.30;93.60
6879;DHT22;3478;51.462;7.338;2023-06-26T03:15:47;22.30;93.60
6879;DHT22;3478;51.462;7.338;2023-06-26T03:20:49;22.40;93.40
6879;DHT22;3478;51.462;7.338;2023-06-26T03:25:51;22.40;93.40
6879;DHT22;3478;51.462;7.338;2023-06-26T03:30:54;22.40;92.80
6879;DHT22;3478;51.462;7.338;2023-06-26T03:35:56;22.50;93.20
6879;DHT22;3478;51.462;7.338;2023-06-26T03:40:59;22.50;93.50
6879;DHT22;3478;51.462;7.338;2023-06-26T03:46:03;22.30;94.20
6879;DHT22;3478;51.462;7.338;2023-06-26T03:51:05;22.30;94.30
6879;DHT22;3478;51.462;7.338;2023-06-26T03:56:07;22.30;94.50
6879;DHT22;3478;51.462;7.338;2023-06-26T04:01:10;22.20;94.80
6879;DHT22;3478;51.462;7.338;2023-06-26T04:06:12;22.20;94.90
6879;DHT22;3478;51.462;7.338;2023-06-26T04:11:14;22.20;94.90
6879;DHT22;3478;51.462;7.338;2023-06-26T04:16:18;22.20;95.30
6879;DHT22;3478;51.462;7.338;2023-06-26T04:21:21;22.30;96.10
6879;DHT22;3478;51.462;7.338;2023-06-26T04:26:25;22.30;96.80
6879;DHT22;3478;51.462;7.338;2023-06-26T04:31:29;22.30;97.80
6879;DHT22;3478;51.462;7.338;2023-06-26T04:36:31;22.20;98.90
6879;DHT22;3478;51.462;7.338;2023-06-26T04:41:33;22.20;99.90
6879;DHT22;3478;51.462;7.338;2023-06-26T04:46:39;22.10;99.90
6879;DHT22;3478;51.462;7.338;2023-06-26T04:51:41;22.10;99.90
6879;DHT22;3478;51.462;7.338;2023-06-26T04:56:43;22.20;99.90
6879;DHT22;3478;51.462;7.338;2023-06-26T05:01:49;22.10;99.90
6879;DHT22;3478;51.462;7.338;2023-06-26T05:06:51;22.10;99.90
6879;DHT22;3478;51.462;7.338;2023-06-26T05:11:53;22.10;99.90
6879;DHT22;3478;51.462;7.338;2023-06-26T05:16:56;22.10;99.90
6879;DHT22;3478;51.462;7.338;2023-06-26T05:21:59;22.10;99.90
6879;DHT22;3478;51.462;7.338;2023-06-26T05:27:05;22.20;99.90
6879;DHT22;3478;51.462;7.338;2023-06-26T05:32:09;22.40;99.90
6879;DHT22;3478;51.462;7.338;2023-06-26T05:37:14;22.50;99.90
6879;DHT22;3478;51.462;7.338;2023-06-26T05:42:20;22.50;99.90
6879;DHT22;3478;51.462;7.338;2023-06-26T05:47:24;22.30;99.90
6879;DHT22;3478;51.462;7.338;2023-06-26T05:52:26;22.20;99.90
6879;DHT22;3478;51.462;7.338;2023-06-26T05:57:29;22.30;99.90
6879;DHT22;3478;51.462;7.338;2023-06-26T06:02:33;22.60;99.90
6879;DHT22;3478;51.462;7.338;2023-06-26T06:07:36;22.50;99.90
6879;DHT22;3478;51.462;7.338;2023-06-26T06:12:38;22.60;99.90
6879;DHT22;3478;51.462;7.338;2023-06-26T06:17:41;22.50;99.90
6879;DHT22;3478;51.462;7.338;2023-06-26T06:22:43;22.30;99.90
6879;DHT22;3478;51.462;7.338;2023-06-26T06:27:45;22.20;99.90
6879;DHT22;3478;51.462;7.338;2023-06-26T06:32:48;22.20;99.90
6879;DHT22;3478;51.462;7.338;2023-06-26T06:37:52;22.30;99.90
6879;DHT22;3478;51.462;7.338;2023-06-26T06:42:54;22.20;99.90
6879;DHT22;3478;51.462;7.338;2023-06-26T06:47:57;22.30;99.90
6879;DHT22;3478;51.462;7.338;2023-06-26T06:52:59;22.40;99.90
6879;DHT22;3478;51.462;7.338;2023-06-26T06:58:00;22.60;99.90
6879;DHT22;3478;51.462;7.338;2023-06-26T07:03:04;22.90;99.90
6879;DHT22;3478;51.462;7.338;2023-06-26T07:08:06;23.00;99.90
6879;DHT22;3478;51.462;7.338;2023-06-26T07:13:08;22.80;99.90
6879;DHT22;3478;51.462;7.338;2023-06-26T07:18:11;22.60;99.90
6879;DHT22;3478;51.462;7.338;2023-06-26T07:23:13;22.80;99.90
6879;DHT22;3478;51.462;7.338;2023-06-26T07:28:15;22.60;99.90
6879;DHT22;3478;51.462;7.338;2023-06-26T07:33:18;22.60;99.90
6879;DHT22;3478;51.462;7.338;2023-06-26T07:38:21;22.60;99.90
6879;DHT22;3478;51.462;7.338;2023-06-26T07:43:23;22.60;99.90
6879;DHT22;3478;51.462;7.338;2023-06-26T07:48:26;22.80;99.90
6879;DHT22;3478;51.462;7.338;2023-06-26T07:53:28;22.90;99.90
6879;DHT22;3478;51.462;7.338;2023-06-26T07:58:30;22.90;99.90
6879;DHT22;3478;51.462;7.338;2023-06-26T08:03:33;22.90;99.90
6879;DHT22;3478;51.462;7.338;2023-06-26T08:08:35;23.20;99.90
6879;DHT22;3478;51.462;7.338;2023-06-26T08:13:37;23.20;99.90
6879;DHT22;3478;51.462;7.338;2023-06-26T08:18:41;23.50;99.90
6879;DHT22;3478;51.462;7.338;2023-06-26T08:23:43;23.70;99.90
6879;DHT22;3478;51.462;7.338;2023-06-26T08:28:47;23.70;99.90
6879;DHT22;3478;51.462;7.338;2023-06-26T08:33:50;23.50;99.90
6879;DHT22;3478;51.462;7.338;2023-06-26T08:38:52;23.40;99.90
6879;DHT22;3478;51.462;7.338;2023-06-26T08:43:54;23.30;99.90
6879;DHT22;3478;51.462;7.338;2023-06-26T08:49:05;23.50;99.90
6879;DHT22;3478;51.462;7.338;2023-06-26T08:54:09;23.40;99.90
6879;DHT22;3478;51.462;7.338;2023-06-26T08:59:14;23.40;99.90
6879;DHT22;3478;51.462;7.338;2023-06-26T09:04:17;23.20;99.90
6879;DHT22;3478;51.462;7.338;2023-06-26T09:09:19;23.10;99.90
6879;DHT22;3478;51.462;7.338;2023-06-26T09:14:22;23.40;99.90
6879;DHT22;3478;51.462;7.338;2023-06-26T09:19:26;24.10;99.90
6879;DHT22;3478;51.462;7.338;2023-06-26T09:24:28;23.70;99.90
6879;DHT22;3478;51.462;7.338;2023-06-26T09:29:31;23.40;99.90
6879;DHT22;3478;51.462;7.338;2023-06-26T09:34:35;23.70;99.90
6879;DHT22;3478;51.462;7.338;2023-06-26T09:39:37;24.30;99.90
6879;DHT22;3478;51.462;7.338;2023-06-26T09:44:43;24.80;99.90
6879;DHT22;3478;51.462;7.338;2023-06-26T09:49:47;24.40;99.90
6879;DHT22;3478;51.462;7.338;2023-06-26T09:54:49;24.40;99.90
6879;DHT22;3478;51.462;7.338;2023-06-26T09:59:51;24.90;99.90
6879;DHT22;3478;51.462;7.338;2023-06-26T10:04:55;25.00;99.90
6879;DHT22;3478;51.462;7.338;2023-06-26T10:10:00;25.30;99.90
6879;DHT22;3478;51.462;7.338;2023-06-26T10:15:04;24.60;99.90
6879;DHT22;3478;51.462;7.338;2023-06-26T10:20:10;23.90;99.90
6879;DHT22;3478;51.462;7.338;2023-06-26T10:25:16;24.80;99.90
6879;DHT22;3478;51.462;7.338;2023-06-26T10:30:22;25.20;99.90
6879;DHT22;3478;51.462;7.338;2023-06-26T10:35:26;25.00;99.30
6879;DHT22;3478;51.462;7.338;2023-06-26T10:40:33;24.60;99.90
6879;DHT22;3478;51.462;7.338;2023-06-26T10:45:45;24.30;99.90
6879;DHT22;3478;51.462;7.338;2023-06-26T10:50:54;25.00;99.00
6879;DHT22;3478;51.462;7.338;2023-06-26T10:55:57;25.40;97.20
6879;DHT22;3478;51.462;7.338;2023-06-26T11:01:18;25.30;96.20
6879;DHT22;3478;51.462;7.338;2023-06-26T11:06:22;24.90;96.10
6879;DHT22;3478;51.462;7.338;2023-06-26T11:11:57;24.40;97.80
6879;DHT22;3478;51.462;7.338;2023-06-26T11:17:08;25.70;96.80
6879;DHT22;3478;51.462;7.338;2023-06-26T11:22:12;26.30;93.60
6879;DHT22;3478;51.462;7.338;2023-06-26T11:27:15;25.80;92.60
6879;DHT22;3478;51.462;7.338;2023-06-26T11:32:17;26.00;94.00
6879;DHT22;3478;51.462;7.338;2023-06-26T11:37:21;26.30;93.00
6879;DHT22;3478;51.462;7.338;2023-06-26T11:42:31;26.60;93.90
6879;DHT22;3478;51.462;7.338;2023-06-26T11:47:33;25.90;93.90
6879;DHT22;3478;51.462;7.338;2023-06-26T11:52:36;25.20;94.50
6879;DHT22;3478;51.462;7.338;2023-06-26T11:57:38;25.20;95.50
6879;DHT22;3478;51.462;7.338;2023-06-26T12:02:41;26.10;93.40
6879;DHT22;3478;51.462;7.338;2023-06-26T12:07:46;26.00;90.30
6879;DHT22;3478;51.462;7.338;2023-06-26T12:12:48;25.80;90.70
6879;DHT22;3478;51.462;7.338;2023-06-26T12:17:50;26.20;87.80
6879;DHT22;3478;51.462;7.338;2023-06-26T12:22:53;26.90;85.40
6879;DHT22;3478;51.462;7.338;2023-06-26T12:27:55;26.40;85.90
6879;DHT22;3478;51.462;7.338;2023-06-26T12:32:57;26.20;85.80
6879;DHT22;3478;51.462;7.338;2023-06-26T12:38:01;26.00;83.50
6879;DHT22;3478;51.462;7.338;2023-06-26T12:43:03;26.20;83.50
6879;DHT22;3478;51.462;7.338;2023-06-26T12:48:10;26.70;78.90
6879;DHT22;3478;51.462;7.338;2023-06-26T12:53:13;25.50;79.60
6879;DHT22;3478;51.462;7.338;2023-06-26T12:58:15;25.60;75.40
6879;DHT22;3478;51.462;7.338;2023-06-26T13:03:18;26.70;77.00
6879;DHT22;3478;51.462;7.338;2023-06-26T13:08:22;27.80;71.00
6879;DHT22;3478;51.462;7.338;2023-06-26T13:13:24;26.70;67.90
6879;DHT22;3478;51.462;7.338;2023-06-26T13:18:26;26.80;66.50
6879;DHT22;3478;51.462;7.338;2023-06-26T13:23:29;27.40;68.10
6879;DHT22;3478;51.462;7.338;2023-06-26T13:28:31;26.80;67.60
6879;DHT22;3478;51.462;7.338;2023-06-26T13:33:33;26.90;67.20
6879;DHT22;3478;51.462;7.338;2023-06-26T13:38:37;27.20;65.70
6879;DHT22;3478;51.462;7.338;2023-06-26T13:43:39;27.20;66.00
6879;DHT22;3478;51.462;7.338;2023-06-26T13:48:41;26.70;65.00
6879;DHT22;3478;51.462;7.338;2023-06-26T13:53:44;26.10;65.80
6879;DHT22;3478;51.462;7.338;2023-06-26T13:58:46;27.30;65.00
6879;DHT22;3478;51.462;7.338;2023-06-26T14:03:48;27.60;61.00
6879;DHT22;3478;51.462;7.338;2023-06-26T14:08:51;28.20;60.80
6879;DHT22;3478;51.462;7.338;2023-06-26T14:13:53;28.60;57.20
6879;DHT22;3478;51.462;7.338;2023-06-26T14:18:55;28.10;57.10
6879;DHT22;3478;51.462;7.338;2023-06-26T14:23:58;28.10;56.50
6879;DHT22;3478;51.462;7.338;2023-06-26T14:29:00;28.20;55.70
6879;DHT22;3478;51.462;7.338;2023-06-26T14:34:02;27.60;56.60
6879;DHT22;3478;51.462;7.338;2023-06-26T14:39:05;27.30;56.70
6879;DHT22;3478;51.462;7.338;2023-06-26T14:44:07;28.10;55.00
6879;DHT22;3478;51.462;7.338;2023-06-26T14:49:11;28.10;54.70
6879;DHT22;3478;51.462;7.338;2023-06-26T14:54:15;29.10;53.30
6879;DHT22;3478;51.462;7.338;2023-06-26T14:59:16;30.40;51.20
6879;DHT22;3478;51.462;7.338;2023-06-26T15:04:18;30.40;48.80
6879;DHT22;3478;51.462;7.338;2023-06-26T15:09:22;28.60;50.20
6879;DHT22;3478;51.462;7.338;2023-06-26T15:14:24;26.50;53.00
6879;DHT22;3478;51.462;7.338;2023-06-26T15:19:26;26.70;54.80
6879;DHT22;3478;51.462;7.338;2023-06-26T15:24:29;26.90;53.90
6879;DHT22;3478;51.462;7.338;2023-06-26T15:29:31;27.40;56.20
6879;DHT22;3478;51.462;7.338;2023-06-26T15:34:33;27.10;58.50
6879;DHT22;3478;51.462;7.338;2023-06-26T15:39:36;27.50;58.10
6879;DHT22;3478;51.462;7.338;2023-06-26T15:44:39;27.70;56.40
6879;DHT22;3478;51.462;7.338;2023-06-26T15:49:41;27.60;55.10
6879;DHT22;3478;51.462;7.338;2023-06-26T15:54:46;27.20;57.00
6879;DHT22;3478;51.462;7.338;2023-06-26T15:59:48;26.50;57.90
6879;DHT22;3478;51.462;7.338;2023-06-26T16:04:50;26.10;58.50
6879;DHT22;3478;51.462;7.338;2023-06-26T16:09:53;25.30;61.00
6879;DHT22;3478;51.462;7.338;2023-06-26T16:14:55;24.80;63.50
6879;DHT22;3478;51.462;7.338;2023-06-26T16:19:57;24.50;65.00
6879;DHT22;3478;51.462;7.338;2023-06-26T16:25:00;24.50;64.60
6879;DHT22;3478;51.462;7.338;2023-06-26T16:30:03;24.60;64.30
6879;DHT22;3478;51.462;7.338;2023-06-26T16:35:06;24.60;63.70
6879;DHT22;3478;51.462;7.338;2023-06-26T16:40:10;24.60;65.50
6879;DHT22;3478;51.462;7.338;2023-06-26T16:45:12;24.30;62.50
6879;DHT22;3478;51.462;7.338;2023-06-26T16:50:14;23.80;63.50
6879;DHT22;3478;51.462;7.338;2023-06-26T16:55:17;23.30;64.80
6879;DHT22;3478;51.462;7.338;2023-06-26T17:00:20;22.90;65.70
6879;DHT22;3478;51.462;7.338;2023-06-26T17:05:22;22.90;65.80
6879;DHT22;3478;51.462;7.338;2023-06-26T17:10:25;22.90;66.50
6879;DHT22;3478;51.462;7.338;2023-06-26T17:15:27;22.60;67.00
6879;DHT22;3478;51.462;7.338;2023-06-26T17:20:29;22.40;66.80
6879;DHT22;3478;51.462;7.338;2023-06-26T17:25:32;22.60;66.90
6879;DHT22;3478;51.462;7.338;2023-06-26T17:30:35;22.30;65.20
6879;DHT22;3478;51.462;7.338;2023-06-26T17:35:36;22.00;64.60
6879;DHT22;3478;51.462;7.338;2023-06-26T17:40:40;21.90;64.60
6879;DHT22;3478;51.462;7.338;2023-06-26T17:45:42;21.90;65.40
6879;DHT22;3478;51.462;7.338;2023-06-26T17:50:44;22.20;65.40
6879;DHT22;3478;51.462;7.338;2023-06-26T17:55:47;22.50;65.20
6879;DHT22;3478;51.462;7.338;2023-06-26T18:00:49;22.50;65.90
6879;DHT22;3478;51.462;7.338;2023-06-26T18:05:51;22.70;65.90
6879;DHT22;3478;51.462;7.338;2023-06-26T18:10:55;22.50;66.50
6879;DHT22;3478;51.462;7.338;2023-06-26T18:15:56;22.40;66.80
6879;DHT22;3478;51.462;7.338;2023-06-26T18:20:59;22.40;66.50
6879;DHT22;3478;51.462;7.338;2023-06-26T18:26:02;22.50;67.00
6879;DHT22;3478;51.462;7.338;2023-06-26T18:31:04;22.30;64.60
6879;DHT22;3478;51.462;7.338;2023-06-26T18:36:08;22.30;63.80
6879;DHT22;3478;51.462;7.338;2023-06-26T18:41:12;22.40;64.30
6879;DHT22;3478;51.462;7.338;2023-06-26T18:46:14;22.20;65.80
6879;DHT22;3478;51.462;7.338;2023-06-26T18:51:16;22.00;65.40
6879;DHT22;3478;51.462;7.338;2023-06-26T18:56:19;21.80;64.80
6879;DHT22;3478;51.462;7.338;2023-06-26T19:01:21;21.60;64.30
6879;DHT22;3478;51.462;7.338;2023-06-26T19:06:23;21.50;62.60
6879;DHT22;3478;51.462;7.338;2023-06-26T19:11:26;21.40;63.00
6879;DHT22;3478;51.462;7.338;2023-06-26T19:16:28;21.20;64.10
6879;DHT22;3478;51.462;7.338;2023-06-26T19:21:30;21.00;65.50
6879;DHT22;3478;51.462;7.338;2023-06-26T19:26:33;20.70;66.70
6879;DHT22;3478;51.462;7.338;2023-06-26T19:31:35;20.60;68.10
6879;DHT22;3478;51.462;7.338;2023-06-26T19:36:37;20.60;68.50
6879;DHT22;3478;51.462;7.338;2023-06-26T19:41:40;20.40;69.30
6879;DHT22;3478;51.462;7.338;2023-06-26T19:46:42;20.30;70.40
6879;DHT22;3478;51.462;7.338;2023-06-26T19:51:44;20.20;71.40
6879;DHT22;3478;51.462;7.338;2023-06-26T19:56:48;20.10;72.50
6879;DHT22;3478;51.462;7.338;2023-06-26T20:01:53;20.00;73.30
6879;DHT22;3478;51.462;7.338;2023-06-26T20:06:55;19.90;74.20
6879;DHT22;3478;51.462;7.338;2023-06-26T20:12:03;19.90;75.30
6879;DHT22;3478;51.462;7.338;2023-06-26T20:17:06;19.80;75.80
6879;DHT22;3478;51.462;7.338;2023-06-26T20:22:08;19.70;76.30
6879;DHT22;3478;51.462;7.338;2023-06-26T20:27:11;19.60;77.10
6879;DHT22;3478;51.462;7.338;2023-06-26T20:32:13;19.60;77.30
6879;DHT22;3478;51.462;7.338;2023-06-26T20:37:15;19.60;78.90
6879;DHT22;3478;51.462;7.338;2023-06-26T20:42:19;19.40;79.50
6879;DHT22;3478;51.462;7.338;2023-06-26T20:47:22;19.30;80.60
6879;DHT22;3478;51.462;7.338;2023-06-26T20:52:32;19.20;82.20
6879;DHT22;3478;51.462;7.338;2023-06-26T20:57:36;19.20;83.40
6879;DHT22;3478;51.462;7.338;2023-06-26T21:02:38;19.10;84.10
6879;DHT22;3478;51.462;7.338;2023-06-26T21:07:40;19.00;86.80
6879;DHT22;3478;51.462;7.338;2023-06-26T21:12:43;18.90;87.30
6879;DHT22;3478;51.462;7.338;2023-06-26T21:17:45;18.90;88.30
6879;DHT22;3478;51.462;7.338;2023-06-26T21:22:47;18.90;89.00
6879;DHT22;3478;51.462;7.338;2023-06-26T21:27:50;18.80;90.20
6879;DHT22;3478;51.462;7.338;2023-06-26T21:32:52;18.70;90.80
6879;DHT22;3478;51.462;7.338;2023-06-26T21:37:54;18.60;91.70
6879;DHT22;3478;51.462;7.338;2023-06-26T21:42:58;18.60;92.20
6879;DHT22;3478;51.462;7.338;2023-06-26T21:47:59;18.50;92.90
6879;DHT22;3478;51.462;7.338;2023-06-26T21:53:02;18.50;93.10
6879;DHT22;3478;51.462;7.338;2023-06-26T21:58:07;18.40;93.50
6879;DHT22;3478;51.462;7.338;2023-06-26T22:03:09;18.40;94.50
6879;DHT22;3478;51.462;7.338;2023-06-26T22:08:12;18.30;95.20
6879;DHT22;3478;51.462;7.338;2023-06-26T22:13:16;18.20;97.10
6879;DHT22;3478;51.462;7.338;2023-06-26T22:18:18;18.20;97.10
6879;DHT22;3478;51.462;7.338;2023-06-26T22:23:20;18.10;97.10
6879;DHT22;3478;51.462;7.338;2023-06-26T22:28:23;18.10;97.30
6879;DHT22;3478;51.462;7.338;2023-06-26T22:33:25;18.00;98.30
6879;DHT22;3478;51.462;7.338;2023-06-26T22:38:27;17.90;99.40
6879;DHT22;3478;51.462;7.338;2023-06-26T22:43:30;17.90;99.60
6879;DHT22;3478;51.462;7.338;2023-06-26T22:48:32;17.80;99.90
6879;DHT22;3478;51.462;7.338;2023-06-26T22:53:37;17.70;99.90
6879;DHT22;3478;51.462;7.338;2023-06-26T22:58:41;17.70;99.90
6879;DHT22;3478;51.462;7.338;2023-06-26T23:03:43;17.60;99.90
6879;DHT22;3478;51.462;7.338;2023-06-26T23:08:45;17.60;99.90
6879;DHT22;3478;51.462;7.338;2023-06-26T23:13:50;17.50;99.90
6879;DHT22;3478;51.462;7.338;2023-06-26T23:18:51;17.50;99.90
6879;DHT22;3478;51.462;7.338;2023-06-26T23:23:54;17.30;99.90
6879;DHT22;3478;51.462;7.338;2023-06-26T23:29:00;17.20;99.90
6879;DHT22;3478;51.462;7.338;2023-06-26T23:34:02;17.30;99.90
6879;DHT22;3478;51.462;7.338;2023-06-26T23:39:04;17.20;99.90
6879;DHT22;3478;51.462;7.338;2023-06-26T23:44:07;17.20;99.90
6879;DHT22;3478;51.462;7.338;2023-06-26T23:49:13;17.20;99.90
6879;DHT22;3478;51.462;7.338;2023-06-26T23:54:15;17.20;99.90
6879;DHT22;3478;51.462;7.338;2023-06-26T23:59:23;17.10;99.90
